createdAt,value
2018-06-08T00:01:15.333Z,2.27
2018-06-08T00:03:43.036Z,2.00
2018-06-08T00:06:10.971Z,2.03
2018-06-08T00:08:38.837Z,2.23
2018-06-08T00:11:06.780Z,2.17
2018-06-08T00:13:34.804Z,2.63
2018-06-08T00:16:02.869Z,1.90
2018-06-08T00:18:31.044Z,2.17
2018-06-08T00:20:59.198Z,2.30
2018-06-08T00:23:27.383Z,1.80
2018-06-08T00:25:55.368Z,1.70
2018-06-08T00:28:23.387Z,2.30
2018-06-08T00:30:51.962Z,2.07
2018-06-08T00:33:20.945Z,2.30
2018-06-08T00:35:49.105Z,2.83
2018-06-08T00:38:17.198Z,1.90
2018-06-08T00:40:45.316Z,2.00
2018-06-08T00:43:13.247Z,2.20
2018-06-08T00:45:41.347Z,2.10
2018-06-08T00:48:09.327Z,2.37
2018-06-08T00:50:37.308Z,2.17
2018-06-08T00:53:05.587Z,2.23
2018-06-08T00:55:33.711Z,3.00
2018-06-08T00:58:01.756Z,2.30
2018-06-08T01:00:29.860Z,2.13
2018-06-08T01:02:57.888Z,2.40
2018-06-08T01:05:25.801Z,2.37
2018-06-08T01:07:53.893Z,2.40
2018-06-08T01:10:21.836Z,2.60
2018-06-08T01:12:50.003Z,2.53
2018-06-08T01:15:18.036Z,2.20
2018-06-08T01:17:45.944Z,2.37
2018-06-08T01:20:15.421Z,2.47
2018-06-08T01:22:43.403Z,2.57
2018-06-08T01:25:14.081Z,2.60
2018-06-08T01:27:42.120Z,2.60
2018-06-08T01:30:10.127Z,2.70
2018-06-08T01:32:38.127Z,2.07
2018-06-08T01:35:07.308Z,2.27
2018-06-08T01:37:35.549Z,2.70
2018-06-08T01:40:03.518Z,2.10
2018-06-08T01:42:31.791Z,2.20
2018-06-08T01:45:00.037Z,2.30
2018-06-08T01:47:28.277Z,2.43
2018-06-08T01:49:56.665Z,2.50
2018-06-08T01:52:24.620Z,2.20
2018-06-08T01:54:52.643Z,2.17
2018-06-08T01:57:20.760Z,2.37
2018-06-08T01:59:48.807Z,2.53
2018-06-08T02:02:17.746Z,2.30
2018-06-08T02:04:45.952Z,2.37
2018-06-08T02:07:13.981Z,2.63
2018-06-08T02:09:41.936Z,2.07
2018-06-08T02:12:10.024Z,2.03
2018-06-08T02:14:38.051Z,1.97
2018-06-08T02:17:06.076Z,2.10
2018-06-08T02:19:34.078Z,2.60
2018-06-08T02:22:01.991Z,2.50
2018-06-08T02:24:29.773Z,2.33
2018-06-08T02:26:57.987Z,2.30
2018-06-08T02:29:26.195Z,2.13
2018-06-08T02:31:54.317Z,2.47
2018-06-08T02:34:22.438Z,2.07
2018-06-08T02:36:50.645Z,2.57
2018-06-08T02:39:18.725Z,2.37
2018-06-08T02:41:46.513Z,2.10
2018-06-08T02:44:14.500Z,2.50
2018-06-08T02:46:42.765Z,2.60
2018-06-08T02:49:10.911Z,2.57
2018-06-08T02:51:39.855Z,2.20
2018-06-08T02:54:07.639Z,2.10
2018-06-08T02:56:35.712Z,2.13
2018-06-08T02:59:03.647Z,2.60
2018-06-08T03:01:31.671Z,2.17
2018-06-08T03:03:59.625Z,2.47
2018-06-08T03:06:27.588Z,2.03
2018-06-08T03:08:55.430Z,2.20
2018-06-08T03:11:23.426Z,2.57
2018-06-08T03:13:51.292Z,2.30
2018-06-08T03:16:19.175Z,2.13
2018-06-08T03:18:47.102Z,2.30
2018-06-08T03:21:15.023Z,2.30
2018-06-08T03:23:42.817Z,2.60
2018-06-08T03:26:10.739Z,2.43
2018-06-08T03:28:38.758Z,2.50
2018-06-08T03:31:06.642Z,2.80
2018-06-08T03:33:34.643Z,2.67
2018-06-08T03:36:02.875Z,2.40
2018-06-08T03:38:31.445Z,3.37
2018-06-08T03:40:59.918Z,2.67
2018-06-08T03:43:28.080Z,3.30
2018-06-08T03:45:59.809Z,2.77
2018-06-08T03:51:19.374Z,2.40
2018-06-08T03:53:47.428Z,2.20
2018-06-08T03:56:15.157Z,2.70
2018-06-08T03:58:42.957Z,2.50
2018-06-08T04:01:10.896Z,2.60
2018-06-08T04:03:38.843Z,2.60
2018-06-08T04:06:07.509Z,2.30
2018-06-08T04:08:35.444Z,2.87
2018-06-08T04:11:03.567Z,2.60
2018-06-08T04:13:31.669Z,2.60
2018-06-08T04:16:00.047Z,2.47
2018-06-08T04:18:29.071Z,2.50
2018-06-08T04:20:57.134Z,3.03
2018-06-08T04:23:25.122Z,2.80
2018-06-08T04:25:52.932Z,3.00
2018-06-08T04:28:20.800Z,2.80
2018-06-08T04:30:49.024Z,2.57
2018-06-08T04:33:17.825Z,2.60
2018-06-08T04:35:45.859Z,2.63
2018-06-08T04:38:13.933Z,2.37
2018-06-08T04:40:41.844Z,2.53
2018-06-08T04:43:10.222Z,2.63
2018-06-08T04:45:43.692Z,2.80
2018-06-08T04:48:11.672Z,3.50
2018-06-08T04:50:40.140Z,2.40
2018-06-08T04:53:08.371Z,3.03
2018-06-08T04:55:36.205Z,2.40
2018-06-08T04:58:05.100Z,3.33
2018-06-08T05:00:34.025Z,3.03
2018-06-08T05:03:02.271Z,2.80
2018-06-08T05:05:30.169Z,2.57
2018-06-08T05:07:58.286Z,2.43
2018-06-08T05:10:26.772Z,2.50
2018-06-08T05:12:55.070Z,2.43
2018-06-08T05:15:23.220Z,2.70
2018-06-08T05:17:51.260Z,2.27
2018-06-08T05:20:20.016Z,2.77
2018-06-08T05:22:47.950Z,2.90
2018-06-08T05:25:15.757Z,2.27
2018-06-08T05:27:43.870Z,2.53
2018-06-08T05:30:15.057Z,2.30
2018-06-08T05:32:43.793Z,2.70
2018-06-08T05:35:11.895Z,2.43
2018-06-08T05:37:40.298Z,2.43
2018-06-08T05:40:08.548Z,2.10
2018-06-08T05:42:37.109Z,2.20
2018-06-08T05:45:05.453Z,2.60
2018-06-08T05:47:33.737Z,2.20
2018-06-08T05:50:08.982Z,2.03
2018-06-08T05:52:37.056Z,2.77
2018-06-08T05:55:05.524Z,2.10
2018-06-08T05:57:34.570Z,2.07
2018-06-08T06:00:03.251Z,2.40
2018-06-08T06:02:31.128Z,2.27
2018-06-08T06:04:59.147Z,2.17
2018-06-08T06:07:33.867Z,2.10
2018-06-08T06:10:01.840Z,2.00
2018-06-08T06:12:30.047Z,2.70
2018-06-08T06:14:57.805Z,2.70
2018-06-08T06:17:25.709Z,2.63
2018-06-08T06:19:53.685Z,2.37
2018-06-08T06:22:21.757Z,2.50
2018-06-08T06:24:50.208Z,2.27
2018-06-08T06:27:18.178Z,2.40
2018-06-08T06:29:45.998Z,2.27
2018-06-08T06:32:14.038Z,1.97
2018-06-08T06:34:41.912Z,2.63
2018-06-08T06:37:09.608Z,2.70
2018-06-08T06:39:37.787Z,2.20
2018-06-08T06:42:05.666Z,2.43
2018-06-08T06:44:34.133Z,2.30
2018-06-08T06:47:02.001Z,2.53
2018-06-08T06:49:29.713Z,3.00
2018-06-08T06:51:57.622Z,2.50
2018-06-08T06:54:25.752Z,2.80
2018-06-08T06:56:53.848Z,2.20
2018-06-08T06:59:22.513Z,2.40
2018-06-08T07:01:50.868Z,2.73
2018-06-08T07:04:18.786Z,2.80
2018-06-08T07:06:46.578Z,2.77
2018-06-08T07:09:14.407Z,2.60
2018-06-08T07:11:42.439Z,2.90
2018-06-08T07:14:10.775Z,2.60
2018-06-08T07:16:38.779Z,2.17
2018-06-08T07:19:07.458Z,2.50
2018-06-08T07:21:35.302Z,2.40
2018-06-08T07:24:03.490Z,2.80
2018-06-08T07:26:31.392Z,2.60
2018-06-08T07:28:59.457Z,2.90
2018-06-08T07:31:36.496Z,3.10
2018-06-08T07:34:04.352Z,2.80
2018-06-08T07:36:32.046Z,3.03
2018-06-08T07:39:00.073Z,2.77
2018-06-08T07:41:27.904Z,2.80
2018-06-08T07:43:55.711Z,3.17
2018-06-08T07:46:23.740Z,2.70
2018-06-08T07:48:51.541Z,2.70
2018-06-08T07:51:19.268Z,3.07
2018-06-08T07:53:47.183Z,2.47
2018-06-08T07:56:15.109Z,2.53
2018-06-08T07:58:42.732Z,2.37
2018-06-08T08:01:10.714Z,3.00
2018-06-08T08:03:38.492Z,2.97
2018-06-08T08:06:06.554Z,3.17
2018-06-08T08:08:34.980Z,2.60
2018-06-08T08:11:03.028Z,3.20
2018-06-08T08:13:30.907Z,2.80
2018-06-08T08:15:59.161Z,2.97
2018-06-08T08:18:27.104Z,2.80
2018-06-08T08:20:56.015Z,3.37
2018-06-08T08:23:24.033Z,3.03
2018-06-08T08:25:52.055Z,3.00
2018-06-08T08:28:19.976Z,2.93
2018-06-08T08:30:48.035Z,3.27
2018-06-08T08:33:15.981Z,3.30
2018-06-08T08:35:43.708Z,3.13
2018-06-08T08:38:11.529Z,2.90
2018-06-08T08:40:39.453Z,3.03
2018-06-08T08:43:07.369Z,4.90
2018-06-08T08:48:03.245Z,3.40
2018-06-08T08:50:31.080Z,3.40
2018-06-08T08:52:58.931Z,3.33
2018-06-08T08:55:26.829Z,3.30
2018-06-08T08:57:54.978Z,3.00
2018-06-08T09:00:22.811Z,2.63
2018-06-08T09:02:50.583Z,3.07
2018-06-08T09:05:18.809Z,3.17
2018-06-08T09:07:46.846Z,2.73
2018-06-08T09:10:15.089Z,2.80
2018-06-08T09:12:42.871Z,2.70
2018-06-08T09:15:12.067Z,2.67
2018-06-08T09:17:41.601Z,3.30
2018-06-08T09:20:11.856Z,4.03
2018-06-08T09:22:40.966Z,3.50
2018-06-08T09:25:09.090Z,3.40
2018-06-08T09:27:37.223Z,3.27
2018-06-08T09:30:05.827Z,2.73
2018-06-08T09:32:33.946Z,3.53
2018-06-08T09:35:02.234Z,2.80
2018-06-08T09:37:30.641Z,3.20
2018-06-08T09:39:59.289Z,3.47
2018-06-08T09:42:28.421Z,3.07
2018-06-08T09:44:56.554Z,3.50
2018-06-08T09:47:26.200Z,3.60
2018-06-08T09:49:54.170Z,3.37
2018-06-08T09:52:22.042Z,3.37
2018-06-08T09:54:50.509Z,3.50
2018-06-08T09:57:18.422Z,3.20
2018-06-08T09:59:46.344Z,3.20
2018-06-08T10:02:15.045Z,3.37
2018-06-08T10:04:42.955Z,3.60
2018-06-08T10:07:10.908Z,3.13
2018-06-08T10:09:38.673Z,3.73
2018-06-08T10:12:06.458Z,3.60
2018-06-08T10:14:34.265Z,2.83
2018-06-08T10:17:02.067Z,3.03
2018-06-08T10:19:29.847Z,3.30
2018-06-08T10:21:57.976Z,4.00
2018-06-08T10:24:27.025Z,3.47
2018-06-08T10:26:55.038Z,4.13
2018-06-08T10:29:23.110Z,3.70
2018-06-08T10:31:51.327Z,3.40
2018-06-08T10:34:19.357Z,4.20
2018-06-08T10:36:47.796Z,4.33
2018-06-08T10:39:16.120Z,4.80
2018-06-08T10:41:44.223Z,3.83
2018-06-08T10:44:12.264Z,4.50
2018-06-08T10:46:40.761Z,3.60
2018-06-08T10:49:08.617Z,3.50
2018-06-08T10:51:36.535Z,3.93
2018-06-08T10:54:04.484Z,4.90
2018-06-08T10:56:32.376Z,4.33
2018-06-08T10:59:00.338Z,4.70
2018-06-08T11:01:28.112Z,5.53
2018-06-08T11:03:56.667Z,3.73
2018-06-08T11:06:24.357Z,3.53
2018-06-08T11:08:52.224Z,4.43
2018-06-08T11:11:20.715Z,4.20
2018-06-08T11:13:48.857Z,3.70
2018-06-08T11:16:16.862Z,4.00
2018-06-08T11:18:45.000Z,4.07
2018-06-08T11:21:13.125Z,4.63
2018-06-08T11:23:42.867Z,3.50
2018-06-08T11:26:11.793Z,3.60
2018-06-08T11:28:39.985Z,4.53
2018-06-08T11:31:08.378Z,4.27
2018-06-08T11:33:37.154Z,4.60
2018-06-08T11:36:06.104Z,4.50
2018-06-08T11:38:34.018Z,5.53
2018-06-08T11:41:04.465Z,4.43
2018-06-08T11:43:32.549Z,4.50
2018-06-08T11:46:00.743Z,3.90
2018-06-08T11:48:30.022Z,5.03
2018-06-08T11:51:02.228Z,4.33
2018-06-08T11:53:33.229Z,4.03
2018-06-08T11:56:07.094Z,5.13
2018-06-08T11:58:43.260Z,4.23
2018-06-08T12:01:11.642Z,4.37
2018-06-08T12:03:41.469Z,5.43
2018-06-08T12:06:10.585Z,4.20
2018-06-08T12:08:38.804Z,4.17
2018-06-08T12:11:07.722Z,4.20
2018-06-08T12:13:36.234Z,4.23
2018-06-08T12:16:09.549Z,3.93
2018-06-08T12:18:38.155Z,4.67
2018-06-08T12:21:11.161Z,4.63
2018-06-08T12:23:39.601Z,4.97
2018-06-08T12:26:07.748Z,4.00
2018-06-08T12:28:36.163Z,4.03
2018-06-08T12:31:04.683Z,4.43
2018-06-08T12:33:39.916Z,4.17
2018-06-08T12:36:09.592Z,4.20
2018-06-08T12:38:37.937Z,4.20
2018-06-08T12:41:06.278Z,4.47
2018-06-08T12:43:34.758Z,4.00
2018-06-08T12:46:02.916Z,3.93
2018-06-08T12:48:32.295Z,4.30
2018-06-08T12:51:00.976Z,5.93
2018-06-08T12:53:28.872Z,4.10
2018-06-08T12:55:57.459Z,4.27
2018-06-08T12:58:25.423Z,4.20
2018-06-08T13:00:53.968Z,4.13
2018-06-08T13:03:21.864Z,4.37
2018-06-08T13:05:50.050Z,4.40
2018-06-08T13:08:18.232Z,4.57
2018-06-08T13:10:47.597Z,4.00
2018-06-08T13:13:17.707Z,4.03
2018-06-08T13:15:45.661Z,4.43
2018-06-08T13:18:14.311Z,4.63
2018-06-08T13:20:42.255Z,4.97
2018-06-08T13:23:10.319Z,5.10
2018-06-08T13:25:41.357Z,4.30
2018-06-08T13:28:09.649Z,4.90
2018-06-08T13:30:37.738Z,4.37
2018-06-08T13:33:05.694Z,4.20
2018-06-08T13:35:33.652Z,4.30
2018-06-08T13:38:01.698Z,4.17
2018-06-08T13:40:29.504Z,4.27
2018-06-08T13:42:57.550Z,4.70
2018-06-08T13:45:25.596Z,4.30
2018-06-08T13:47:55.951Z,4.33
2018-06-08T13:50:23.898Z,4.60
2018-06-08T13:52:51.703Z,4.67
2018-06-08T13:55:19.663Z,3.63
2018-06-08T13:57:47.818Z,4.77
2018-06-08T14:00:15.698Z,4.20
2018-06-08T14:02:43.536Z,5.87
2018-06-08T14:05:11.328Z,4.90
2018-06-08T14:07:39.201Z,4.00
2018-06-08T14:10:06.951Z,4.37
2018-06-08T14:12:34.792Z,4.50
2018-06-08T14:15:03.045Z,4.50
2018-06-08T14:17:30.949Z,4.40
2018-06-08T14:19:59.137Z,4.20
2018-06-08T14:22:26.878Z,4.57
2018-06-08T14:24:54.897Z,3.90
2018-06-08T14:27:22.861Z,4.40
2018-06-08T14:29:50.648Z,4.90
2018-06-08T14:32:18.474Z,5.30
2018-06-08T14:34:47.420Z,4.80
2018-06-08T14:37:15.212Z,4.17
2018-06-08T14:39:43.663Z,4.90
2018-06-08T14:42:11.567Z,4.00
2018-06-08T14:44:39.377Z,4.77
2018-06-08T14:47:07.208Z,4.80
2018-06-08T14:49:35.204Z,4.03
2018-06-08T14:52:03.059Z,4.13
2018-06-08T14:54:31.169Z,4.27
2018-06-08T14:56:59.318Z,4.90
2018-06-08T14:59:27.311Z,4.63
2018-06-08T15:01:55.424Z,4.60
2018-06-08T15:04:23.483Z,4.60
2018-06-08T15:06:51.429Z,5.00
2018-06-08T15:09:19.875Z,4.90
2018-06-08T15:11:48.284Z,3.83
2018-06-08T15:14:16.641Z,4.27
2018-06-08T15:16:44.604Z,4.90
2018-06-08T15:19:13.053Z,4.13
2018-06-08T15:21:40.784Z,4.40
2018-06-08T15:24:08.783Z,4.83
2018-06-08T15:26:36.621Z,4.47
2018-06-08T15:29:04.592Z,4.00
2018-06-08T15:31:32.400Z,3.93
2018-06-08T15:34:00.385Z,4.27
2018-06-08T15:36:30.805Z,3.63
2018-06-08T15:38:58.836Z,4.10
2018-06-08T15:41:26.976Z,3.77
2018-06-08T15:43:54.800Z,3.57
2018-06-08T15:46:23.225Z,4.67
2018-06-08T15:48:51.272Z,3.73
2018-06-08T15:51:19.100Z,3.20
2018-06-08T15:53:46.976Z,3.97
2018-06-08T15:56:15.081Z,2.50
2018-06-08T15:58:43.011Z,2.60
2018-06-08T16:01:11.429Z,2.73
2018-06-08T16:03:39.377Z,2.83
2018-06-08T16:06:07.585Z,2.83
2018-06-08T16:08:36.063Z,2.73
2018-06-08T16:11:03.913Z,2.80
2018-06-08T16:13:31.774Z,2.87
2018-06-08T16:15:59.804Z,2.70
2018-06-08T16:18:27.648Z,2.87
2018-06-08T16:20:55.894Z,2.87
2018-06-08T16:23:23.752Z,2.97
2018-06-08T16:25:51.770Z,3.23
2018-06-08T16:28:19.736Z,3.30
2018-06-08T16:30:47.866Z,2.53
2018-06-08T16:33:16.427Z,2.80
2018-06-08T16:35:44.512Z,3.07
2018-06-08T16:38:12.548Z,3.20
2018-06-08T16:40:41.636Z,3.00
2018-06-08T16:43:09.683Z,2.97
2018-06-08T16:45:37.825Z,2.80
2018-06-08T16:48:05.986Z,3.13
2018-06-08T16:50:34.786Z,3.63
2018-06-08T16:53:02.648Z,3.90
2018-06-08T16:55:30.474Z,2.90
2018-06-08T16:57:58.155Z,2.83
2018-06-08T17:00:25.804Z,2.70
2018-06-08T17:07:51.572Z,3.40
2018-06-08T17:10:19.558Z,2.70
2018-06-08T17:12:47.278Z,2.63
2018-06-08T17:27:32.207Z,2.87
2018-06-08T17:29:59.906Z,2.70
2018-06-08T17:32:28.821Z,2.40
2018-06-08T17:34:57.235Z,2.37
2018-06-08T17:37:25.971Z,2.67
2018-06-08T17:39:53.808Z,2.60
2018-06-08T17:42:21.708Z,2.50
2018-06-08T17:44:49.689Z,2.60
2018-06-08T17:47:17.638Z,1.97
2018-06-08T17:49:45.604Z,2.13
2018-06-08T17:52:13.687Z,2.33
2018-06-08T17:54:41.785Z,2.30
2018-06-08T17:57:09.779Z,2.37
2018-06-08T17:59:38.221Z,2.30
2018-06-08T18:02:06.259Z,2.40
2018-06-08T18:04:34.656Z,2.37
2018-06-08T18:07:02.316Z,2.70
2018-06-08T18:09:30.221Z,2.60
2018-06-08T18:11:59.656Z,2.70
2018-06-08T18:14:28.172Z,2.97
2018-06-08T18:17:00.085Z,1.87
2018-06-08T18:19:28.698Z,2.40
2018-06-08T18:21:59.746Z,2.40
2018-06-08T18:24:29.116Z,2.40
2018-06-08T18:26:57.187Z,2.30
2018-06-08T18:29:25.532Z,2.93
2018-06-08T18:31:53.587Z,2.30
2018-06-08T18:34:22.105Z,2.47
2018-06-08T18:36:50.068Z,2.30
2018-06-08T18:39:18.700Z,2.80
2018-06-08T18:41:47.242Z,1.60
2018-06-08T18:44:15.598Z,2.07
2018-06-08T18:46:48.513Z,2.20
2018-06-08T18:49:16.546Z,1.60
2018-06-08T18:51:45.842Z,2.70
2018-06-08T18:54:14.220Z,2.00
2018-06-08T18:56:48.546Z,2.20
2018-06-08T18:59:17.195Z,2.30
2018-06-08T19:01:45.367Z,2.10
2018-06-08T19:04:13.684Z,1.80
2018-06-08T19:06:42.111Z,2.67
2018-06-08T19:09:12.793Z,2.67
2018-06-08T19:11:41.178Z,3.13
2018-06-08T19:14:09.626Z,2.40
2018-06-08T19:16:37.567Z,2.30
2018-06-08T19:19:06.471Z,2.57
2018-06-08T19:21:35.183Z,2.40
2018-06-08T19:24:03.654Z,2.17
2018-06-08T19:26:31.677Z,1.97
2018-06-08T19:28:59.980Z,1.90
2018-06-08T19:31:28.715Z,2.20
2018-06-08T19:33:56.753Z,2.50
2018-06-08T19:36:25.241Z,1.80
2018-06-08T19:38:53.997Z,2.00
2018-06-08T19:41:22.403Z,1.67
2018-06-08T19:43:52.754Z,1.80
2018-06-08T19:46:23.982Z,2.00
2018-06-08T19:49:02.067Z,1.47
2018-06-08T19:51:31.336Z,2.20
2018-06-08T19:53:59.484Z,2.03
2018-06-08T19:56:28.344Z,2.67
2018-06-08T19:58:57.333Z,1.80
2018-06-08T20:01:30.584Z,2.83
2018-06-08T20:04:00.723Z,2.07
2018-06-08T20:06:28.692Z,1.93
2018-06-08T20:08:59.228Z,1.80
2018-06-08T20:11:27.228Z,2.20
2018-06-08T20:13:55.393Z,1.50
2018-06-08T20:16:23.135Z,1.40
2018-06-08T20:18:51.664Z,1.57
2018-06-08T20:21:19.930Z,1.87
2018-06-08T20:23:49.267Z,2.20
2018-06-08T20:26:17.561Z,2.13
2018-06-08T20:28:45.457Z,2.43
2018-06-08T20:31:13.198Z,2.23
2018-06-08T20:33:41.439Z,1.97
2018-06-08T20:36:10.814Z,2.07
2018-06-08T20:38:38.928Z,2.30
2018-06-08T20:41:06.699Z,2.47
2018-06-08T20:43:35.258Z,1.80
2018-06-08T20:46:06.134Z,2.00
2018-06-08T20:48:34.137Z,1.80
2018-06-08T20:51:02.058Z,1.67
2018-06-08T20:53:30.335Z,1.87
2018-06-08T20:55:59.420Z,2.00
2018-06-08T20:58:29.065Z,1.70
2018-06-08T21:00:57.705Z,2.00
2018-06-08T21:03:25.975Z,1.90
2018-06-08T21:05:54.383Z,1.80
2018-06-08T21:08:22.509Z,1.60
2018-06-08T21:10:50.962Z,1.60
2018-06-08T21:13:18.921Z,2.00
2018-06-08T21:15:47.819Z,1.90
2018-06-08T21:18:16.219Z,1.70
2018-06-08T21:20:44.354Z,1.83
2018-06-08T21:23:12.236Z,2.10
2018-06-08T21:25:40.423Z,2.30
2018-06-08T21:28:08.892Z,1.70
2018-06-08T21:30:38.964Z,1.87
2018-06-08T21:33:07.933Z,2.20
2018-06-08T21:35:40.655Z,2.00
2018-06-08T21:38:09.225Z,2.00
2018-06-08T21:40:37.491Z,2.20
2018-06-08T21:43:06.295Z,1.80
2018-06-08T21:45:37.148Z,2.70
2018-06-08T21:48:05.530Z,2.10
2018-06-08T21:50:40.131Z,1.97
2018-06-08T21:53:10.041Z,1.93
2018-06-08T21:55:38.084Z,2.03
2018-06-08T21:58:06.105Z,2.20
2018-06-08T22:00:35.063Z,2.10
2018-06-08T22:03:05.026Z,2.33
2018-06-08T22:05:33.537Z,2.13
2018-06-08T22:08:01.376Z,2.50
2018-06-08T22:10:29.521Z,2.17
2018-06-08T22:12:57.821Z,2.10
2018-06-08T22:15:28.754Z,2.13
2018-06-08T22:17:57.543Z,1.80
2018-06-08T22:20:25.770Z,1.93
2018-06-08T22:22:53.872Z,2.17
2018-06-08T22:25:21.913Z,2.27
2018-06-08T22:27:49.792Z,2.00
2018-06-08T22:30:17.856Z,2.10
2018-06-08T22:32:50.636Z,1.93
2018-06-08T22:35:18.608Z,2.40
2018-06-08T22:37:46.415Z,2.23
2018-06-08T22:40:14.491Z,2.33
2018-06-08T22:42:42.508Z,2.20
2018-06-08T22:45:10.275Z,1.93
2018-06-08T22:47:38.111Z,2.20
2018-06-08T22:50:05.959Z,2.20
2018-06-08T22:52:33.667Z,2.87
2018-06-08T22:55:01.661Z,2.60
2018-06-08T22:57:29.581Z,3.07
2018-06-08T22:59:57.450Z,2.97
2018-06-08T23:02:25.553Z,2.60
2018-06-08T23:04:53.656Z,1.87
2018-06-08T23:07:21.655Z,2.90
2018-06-08T23:09:49.838Z,2.70
2018-06-08T23:12:17.817Z,2.40
2018-06-08T23:14:45.862Z,2.07
2018-06-08T23:17:13.724Z,2.50
2018-06-08T23:19:41.886Z,2.37
2018-06-08T23:22:10.088Z,2.50
2018-06-08T23:24:38.221Z,2.50
2018-06-08T23:27:06.156Z,1.87
2018-06-08T23:29:33.960Z,2.47
2018-06-08T23:32:01.792Z,1.70
2018-06-08T23:34:29.807Z,2.30
2018-06-08T23:36:57.762Z,1.93
2018-06-08T23:39:25.736Z,2.40
2018-06-08T23:41:53.526Z,2.37
2018-06-08T23:46:56.102Z,2.10
2018-06-08T23:49:23.937Z,2.33
2018-06-08T23:51:51.896Z,2.60
2018-06-08T23:54:20.421Z,2.27
2018-06-08T23:56:48.377Z,2.73
2018-06-08T23:59:16.415Z,2.47
